Time;durP1;ratioP1;P1;durP2;ratioP2;P2;SDS_P1;SDS_P2;PMS_P1;PMS_P2;Temp;Humidity;BMP_temperature;BMP_pressure;BME280_temperature;BME280_humidity;BME280_pressure;Samples;Min_cycle;Max_cycle;Signal;HPM_P1;HPM_P2
2021/10/31 00:00:49;;;;;;;67.47;37.40;;;;;;;9.94;100.00;100521.59;2612198;36;20037;-69
2021/10/31 00:03:18;;;;;;;64.63;36.45;;;;;;;9.91;100.00;100521.84;2611957;36;20065;-69
2021/10/31 00:05:47;;;;;;;68.73;35.10;;;;;;;9.91;100.00;100521.84;2611996;36;20034;-70
2021/10/31 00:08:15;;;;;;;65.63;35.20;;;;;;;9.85;100.00;100525.09;2612335;31;20804;-69
2021/10/31 00:10:49;;;;;;;64.53;34.97;;;;;;;9.73;100.00;100524.38;2611973;36;20046;-71
2021/10/31 00:13:18;;;;;;;58.47;35.55;;;;;;;9.81;100.00;100522.69;2612479;36;20522;-72
2021/10/31 00:15:47;;;;;;;63.17;34.63;;;;;;;9.80;100.00;100523.72;2611952;36;20567;-69
2021/10/31 00:18:16;;;;;;;62.83;35.70;;;;;;;9.71;100.00;100521.84;2611886;36;20073;-70
2021/10/31 00:20:45;;;;;;;77.38;37.22;;;;;;;9.70;100.00;100530.91;2611475;36;20031;-70
2021/10/31 00:25:57;;;;;;;62.72;35.50;;;;;;;9.66;100.00;100537.53;2611795;36;20034;-70
2021/10/31 00:28:25;;;;;;;67.28;36.55;;;;;;;9.65;100.00;100535.84;2612182;36;20042;-70
2021/10/31 00:33:38;;;;;;;76.90;35.92;;;;;;;9.62;100.00;100541.50;2611813;36;20816;-69
2021/10/31 00:38:47;;;;;;;71.75;35.55;;;;;;;9.55;100.00;100529.59;2612131;36;20435;-69
2021/10/31 00:41:19;;;;;;;74.10;37.47;;;;;;;9.53;100.00;100542.31;2612153;31;20126;-71
2021/10/31 00:43:48;;;;;;;75.53;36.15;;;;;;;9.50;100.00;100545.28;2612161;36;20038;-69
2021/10/31 00:46:16;;;;;;;75.13;36.78;;;;;;;9.51;100.00;100549.66;2611979;36;20042;-71
2021/10/31 00:48:45;;;;;;;69.30;37.77;;;;;;;9.50;100.00;100546.13;2612056;36;20150;-70
2021/10/31 00:54:01;;;;;;;74.80;38.20;;;;;;;9.51;100.00;100553.22;2611954;36;20053;-70
2021/10/31 00:56:35;;;;;;;63.60;33.33;;;;;;;9.44;100.00;100550.19;2611883;36;20030;-71
2021/10/31 00:59:04;;;;;;;72.65;36.03;;;;;;;9.41;100.00;100555.00;2612728;36;20617;-69
2021/10/31 01:01:34;;;;;;;;;;;;;;;9.38;100.00;100548.06;2612217;36;20193;-70
2021/10/31 01:04:04;;;;;;;82.85;40.17;;;;;;;9.37;100.00;100558.94;2612261;36;20015;-70
2021/10/31 01:06:57;;;;;;;78.25;39.20;;;;;;;9.37;100.00;100553.56;2612224;31;20630;-70
2021/10/31 01:09:32;;;;;;;79.38;41.72;;;;;;;9.53;100.00;100561.13;2611774;36;20136;-69
2021/10/31 01:12:15;;;;;;;85.40;42.22;;;;;;;9.53;100.00;100553.06;2612184;36;20563;-69
2021/10/31 01:15:00;;;;;;;75.78;40.83;;;;;;;9.50;100.00;100564.94;2611662;31;20046;-69
2021/10/31 01:17:45;;;;;;;76.60;39.83;;;;;;;9.40;100.00;100570.25;2612023;36;20073;-70
2021/10/31 01:20:22;;;;;;;85.20;43.80;;;;;;;9.41;100.00;100563.91;2610690;31;20050;-70
2021/10/31 01:23:20;;;;;;;84.40;42.95;;;;;;;9.45;100.00;100554.59;2611715;36;20078;-68
2021/10/31 01:26:21;;;;;;;86.93;42.72;;;;;;;9.42;100.00;100557.56;2611932;36;20035;-71
2021/10/31 01:29:16;;;;;;;84.15;43.17;;;;;;;9.43;100.00;100550.34;2611913;31;20069;-70
2021/10/31 01:31:57;;;;;;;83.05;43.92;;;;;;;9.46;100.00;100560.81;2611735;36;20064;-70
2021/10/31 01:34:37;;;;;;;79.72;42.17;;;;;;;9.40;100.00;100561.34;2611789;36;20030;-72
2021/10/31 01:40:06;;;;;;;85.00;43.55;;;;;;;9.36;100.00;100568.81;2610522;31;20387;-72
2021/10/31 01:42:43;;;;;;;79.93;44.13;;;;;;;9.37;100.00;100572.38;2611464;36;20126;-70
2021/10/31 01:48:13;;;;;;;85.85;44.35;;;;;;;9.35;100.00;100569.81;2609661;31;20130;-70
2021/10/31 01:50:45;;;;;;;104.93;44.72;;;;;;;9.28;100.00;100566.81;2610661;36;20030;-69
2021/10/31 01:53:22;;;;;;;92.38;44.92;;;;;;;9.34;100.00;100553.84;2610770;36;20041;-70
2021/10/31 01:55:57;;;;;;;80.88;42.25;;;;;;;9.29;100.00;100554.25;2610490;36;20057;-68
2021/10/31 01:58:31;;;;;;;86.85;44.63;;;;;;;9.29;100.00;100546.22;2609684;36;20172;-69
2021/10/31 02:01:23;;;;;;;82.50;41.17;;;;;;;9.26;100.00;100539.25;2611112;36;20058;-71
2021/10/31 02:03:54;;;;;;;84.07;42.90;;;;;;;9.28;100.00;100544.50;2610865;36;20559;-69
2021/10/31 02:06:25;;;;;;;85.18;43.28;;;;;;;9.35;100.00;100552.84;2610837;31;20460;-70
2021/10/31 02:08:54;;;;;;;77.90;40.97;;;;;;;9.32;100.00;100550.44;2611179;36;20085;-72
2021/10/31 02:11:27;;;;;;;88.38;43.65;;;;;;;9.28;100.00;100563.28;2610476;36;20117;-71
2021/10/31 02:14:00;;;;;;;73.10;39.17;;;;;;;9.29;100.00;100573.06;2611311;36;20619;-69
2021/10/31 02:16:49;;;;;;;78.28;41.78;;;;;;;9.31;100.00;100568.41;2611214;36;20031;-71
2021/10/31 02:19:24;;;;;;;86.78;43.88;;;;;;;9.48;100.00;100561.50;2612136;36;20038;-72
2021/10/31 02:21:59;;;;;;;88.70;43.97;;;;;;;9.33;100.00;100569.09;2615949;36;20499;-70
2021/10/31 02:24:30;;;;;;;79.32;39.22;;;;;;;9.25;100.00;100574.31;2611889;31;20061;-69
2021/10/31 02:27:07;;;;;;;87.22;42.45;;;;;;;9.21;100.00;100575.56;2611551;36;20047;-71
2021/10/31 02:29:46;;;;;;;91.68;45.40;;;;;;;9.20;100.00;100576.53;2611827;36;20133;-70
2021/10/31 02:32:17;;;;;;;88.63;42.10;;;;;;;9.26;100.00;100576.84;2611880;31;20031;-72
2021/10/31 02:34:46;;;;;;;81.25;39.70;;;;;;;9.21;100.00;100578.25;2611691;36;20415;-69
2021/10/31 02:37:15;;;;;;;80.95;41.38;;;;;;;9.24;100.00;100575.28;2612730;31;20459;-70
2021/10/31 02:39:46;;;;;;;88.00;44.22;;;;;;;9.26;100.00;100570.63;2611283;36;20073;-70
2021/10/31 02:42:15;;;;;;;92.95;41.78;;;;;;;9.22;100.00;100577.28;2610920;36;20065;-70
2021/10/31 02:44:44;;;;;;;;;;;;;;;9.21;100.00;100578.25;2611742;36;20749;-70
2021/10/31 02:47:22;;;;;;;91.45;42.53;;;;;;;9.17;100.00;100579.50;2610965;36;19953;-70
2021/10/31 02:49:53;;;;;;;84.40;40.97;;;;;;;9.18;100.00;100573.16;2611186;36;20065;-70
2021/10/31 02:52:30;;;;;;;96.97;43.85;;;;;;;9.16;100.00;100583.16;2611264;36;20043;-68
2021/10/31 02:55:11;;;;;;;79.07;41.13;;;;;;;9.18;100.00;100570.47;2612111;31;20569;-68
2021/10/31 02:57:46;;;;;;;88.20;42.33;;;;;;;9.20;100.00;100576.53;2611062;36;20043;-69
2021/10/31 03:00:17;;;;;;;86.57;41.97;;;;;;;9.15;100.00;100565.34;2611327;36;20489;-68
2021/10/31 03:02:48;;;;;;;88.18;43.70;;;;;;;9.15;100.00;100573.41;2611353;36;20042;-68
2021/10/31 03:05:17;;;;;;;83.43;42.03;;;;;;;9.19;100.00;100575.69;2611210;36;20684;-70
2021/10/31 03:07:50;;;;;;;91.30;41.97;;;;;;;9.21;100.00;100562.13;2611915;31;20492;-70
2021/10/31 03:13:02;;;;;;;76.85;40.13;;;;;;;9.17;100.00;100566.06;2612013;36;20570;-69
2021/10/31 03:15:30;;;;;;;90.28;42.10;;;;;;;9.16;100.00;100561.66;2612122;36;20038;-68
2021/10/31 03:17:58;;;;;;;83.32;37.78;;;;;;;9.14;100.00;100559.13;2611677;36;20045;-68
2021/10/31 03:20:28;;;;;;;83.03;39.33;;;;;;;9.14;100.00;100548.38;2612992;31;20532;-68
2021/10/31 03:22:57;;;;;;;79.05;39.35;;;;;;;9.20;100.00;100552.38;2612391;36;20489;-68
2021/10/31 03:25:30;;;;;;;80.13;37.03;;;;;;;9.08;100.00;100552.47;2612257;36;20431;-68
2021/10/31 03:28:00;;;;;;;75.20;39.90;;;;;;;9.09;100.00;100569.41;2612565;31;20520;-68
2021/10/31 03:33:12;;;;;;;71.85;34.63;;;;;;;9.02;100.00;100552.97;2612442;36;20037;-68
2021/10/31 03:35:45;;;;;;;77.72;37.40;;;;;;;9.06;100.00;100562.47;2611926;36;20133;-68
2021/10/31 03:38:15;;;;;;;72.57;36.67;;;;;;;9.07;100.00;100555.28;2611000;36;20050;-68
2021/10/31 03:43:32;;;;;;;73.10;35.08;;;;;;;8.99;100.00;100557.78;2611758;36;20129;-71
2021/10/31 03:46:02;;;;;;;64.22;35.78;;;;;;;8.98;100.00;100551.56;2611385;36;20160;-70
2021/10/31 03:48:30;;;;;;;68.88;32.72;;;;;;;8.99;100.00;100561.31;2611498;36;20065;-70
2021/10/31 03:50:59;;;;;;;65.32;33.42;;;;;;;9.00;100.00;100556.81;2611912;36;20518;-69
2021/10/31 03:53:28;;;;;;;67.97;32.50;;;;;;;8.96;100.00;100558.91;2611741;36;20149;-71
2021/10/31 03:58:56;;;;;;;52.28;29.02;;;;;;;8.94;100.00;100560.88;2610912;36;19954;-69
2021/10/31 04:01:24;;;;;;;64.60;31.10;;;;;;;8.94;100.00;100555.50;2611480;36;20146;-69
2021/10/31 04:03:56;;;;;;;62.05;32.05;;;;;;;8.99;100.00;100555.09;2611933;36;20505;-69
2021/10/31 04:06:25;;;;;;;59.60;30.90;;;;;;;9.03;100.00;100559.22;2611970;36;20039;-70
2021/10/31 04:08:53;;;;;;;60.97;32.00;;;;;;;9.03;100.00;100564.59;2612319;36;20042;-68
2021/10/31 04:11:22;;;;;;;63.92;30.25;;;;;;;9.01;100.00;100556.69;2612148;36;20034;-68
2021/10/31 04:13:52;;;;;;;63.63;32.03;;;;;;;9.07;100.00;100566.03;2612174;36;20178;-69
2021/10/31 04:16:23;;;;;;;59.00;29.42;;;;;;;9.03;100.00;100557.38;2611685;36;20058;-69
2021/10/31 04:18:52;;;;;;;50.10;28.45;;;;;;;9.00;100.00;100560.34;2612237;36;20484;-69
2021/10/31 04:21:21;;;;;;;57.03;30.73;;;;;;;9.02;100.00;100558.34;2611901;36;20161;-70
2021/10/31 04:23:49;;;;;;;68.65;30.13;;;;;;;9.00;100.00;100556.81;2611748;36;20031;-71
2021/10/31 04:26:17;;;;;;;60.55;29.00;;;;;;;9.02;100.00;100552.97;2611897;31;20034;-71
2021/10/31 04:28:45;;;;;;;61.05;29.50;;;;;;;9.00;100.00;100557.66;2612014;36;20448;-70
2021/10/31 04:31:14;;;;;;;61.78;31.02;;;;;;;9.01;100.00;100554.00;2612163;36;20042;-69
2021/10/31 04:33:45;;;;;;;54.78;27.55;;;;;;;8.99;100.00;100560.47;2612039;36;20594;-70
2021/10/31 04:36:14;;;;;;;58.53;28.65;;;;;;;8.97;100.00;100555.22;2611510;36;20034;-70
2021/10/31 04:38:42;;;;;;;52.47;29.00;;;;;;;9.00;100.00;100549.59;2612170;36;20030;-70
2021/10/31 04:41:11;;;;;;;55.92;31.05;;;;;;;9.03;100.00;100554.69;2612318;36;20065;-72
2021/10/31 04:43:39;;;;;;;52.67;27.90;;;;;;;9.01;100.00;100559.34;2611687;36;20037;-71
2021/10/31 04:46:08;;;;;;;62.10;28.85;;;;;;;8.97;100.00;100552.56;2611731;36;20039;-71
2021/10/31 04:48:36;;;;;;;52.30;25.20;;;;;;;8.96;100.00;100555.38;2611697;36;20066;-69
2021/10/31 04:51:07;;;;;;;52.88;28.50;;;;;;;8.97;100.00;100541.81;2612691;31;20185;-70
2021/10/31 04:53:36;;;;;;;56.75;27.58;;;;;;;8.98;100.00;100543.53;2611917;36;20106;-69
2021/10/31 04:56:05;;;;;;;;;;;;;;;8.99;100.00;100536.31;2612412;31;20038;-69
2021/10/31 04:58:33;;;;;;;58.45;28.35;;;;;;;8.96;100.00;100531.22;2611232;36;20057;-69
2021/10/31 05:01:03;;;;;;;49.47;24.83;;;;;;;8.94;100.00;100534.88;2612359;36;20391;-69
2021/10/31 05:03:31;;;;;;;58.85;26.20;;;;;;;9.02;100.00;100541.41;2611344;36;20482;-71
2021/10/31 05:06:00;;;;;;;54.03;26.15;;;;;;;8.96;100.00;100548.16;2611923;36;20677;-72
2021/10/31 05:08:31;;;;;;;49.70;25.45;;;;;;;8.93;100.00;100551.94;2611297;36;20037;-70
2021/10/31 05:10:59;;;;;;;53.15;25.63;;;;;;;8.90;100.00;100543.31;2612487;31;20514;-70
2021/10/31 05:13:28;;;;;;;49.25;24.55;;;;;;;8.91;100.00;100537.81;2611531;36;20143;-70
2021/10/31 05:15:57;;;;;;;51.97;25.42;;;;;;;8.84;100.00;100543.88;2611525;31;20038;-71
2021/10/31 05:18:25;;;;;;;56.60;25.48;;;;;;;8.85;100.00;100553.59;2611864;31;20607;-72
2021/10/31 05:20:54;;;;;;;52.35;24.83;;;;;;;8.85;100.00;100545.53;2611048;36;20685;-71
2021/10/31 05:26:03;;;;;;;47.13;23.23;;;;;;;8.79;100.00;100535.34;2611173;54;20054;-69
2021/10/31 05:28:32;;;;;;;51.45;25.25;;;;;;;8.71;100.00;100525.28;2611938;36;20150;-70
2021/10/31 05:31:00;;;;;;;49.65;25.35;;;;;;;8.78;100.00;100531.81;2611743;36;20141;-70
2021/10/31 05:33:28;;;;;;;47.33;23.98;;;;;;;8.84;100.00;100525.06;2611190;31;20034;-70
2021/10/31 05:35:56;;;;;;;48.00;25.15;;;;;;;8.76;100.00;100521.22;2611168;36;20042;-70
2021/10/31 05:38:25;;;;;;;51.28;27.17;;;;;;;8.80;100.00;100524.47;2611355;36;20093;-71
2021/10/31 05:40:53;;;;;;;51.47;25.88;;;;;;;8.73;100.00;100513.44;2611949;36;20030;-70
2021/10/31 05:43:24;;;;;;;42.42;23.90;;;;;;;8.74;100.00;100520.50;2612386;31;20510;-69
2021/10/31 05:45:52;;;;;;;50.05;24.90;;;;;;;8.67;100.00;100511.28;2612209;36;20094;-70
2021/10/31 05:48:21;;;;;;;49.92;25.75;;;;;;;8.70;100.00;100515.53;2611304;36;20125;-71
2021/10/31 05:50:49;;;;;;;48.22;24.83;;;;;;;8.66;100.00;100516.78;2611359;36;20042;-71
2021/10/31 05:53:17;;;;;;;52.75;26.50;;;;;;;8.66;100.00;100514.94;2611493;36;20892;-70
2021/10/31 05:55:46;;;;;;;53.80;27.70;;;;;;;8.66;100.00;100514.94;2611652;36;20546;-69
2021/10/31 05:58:14;;;;;;;54.63;26.48;;;;;;;8.68;100.00;100509.44;2611807;31;20521;-70
2021/10/31 06:00:45;;;;;;;61.72;28.02;;;;;;;8.68;100.00;100507.59;2611824;36;20146;-69
2021/10/31 06:03:13;;;;;;;55.33;27.80;;;;;;;8.70;100.00;100510.16;2611658;31;20512;-69
2021/10/31 06:52:30;;;;;;;62.22;29.00;;;;;;;8.61;100.00;100474.25;2611664;36;20045;-71
2021/10/31 06:54:59;;;;;;;51.50;26.90;;;;;;;8.63;100.00;100466.94;2611160;36;20034;-70
2021/10/31 06:57:27;;;;;;;54.45;25.95;;;;;;;8.61;100.00;100460.81;2611021;36;20566;-70
2021/10/31 07:02:43;;;;;;;51.38;26.77;;;;;;;8.73;100.00;100457.09;2613989;54;20038;-68
2021/10/31 07:05:11;;;;;;;50.58;27.65;;;;;;;8.71;100.00;100442.94;2612040;36;20076;-68
2021/10/31 07:07:42;;;;;;;55.83;26.23;;;;;;;8.77;100.00;100444.25;2612026;36;20061;-69
2021/10/31 07:10:13;;;;;;;52.45;26.17;;;;;;;8.75;100.00;100440.84;2611760;36;20030;-69
2021/10/31 07:12:42;;;;;;;56.92;27.83;;;;;;;8.79;100.00;100450.34;2611978;36;20030;-70
2021/10/31 07:15:11;;;;;;;59.15;28.95;;;;;;;8.81;100.00;100442.16;2611181;36;20061;-69
2021/10/31 07:17:41;;;;;;;53.25;26.75;;;;;;;8.89;100.00;100445.00;2612112;31;20031;-68
2021/10/31 07:20:10;;;;;;;;;;;;;;;8.83;100.00;100446.38;2611050;36;20703;-69
2021/10/31 07:22:39;;;;;;;;;;;;;;;8.86;100.00;100451.50;2611909;36;19954;-69
2021/10/31 07:25:12;;;;;;;45.40;24.52;;;;;;;8.91;100.00;100433.16;2612115;31;19998;-69
2021/10/31 07:27:41;;;;;;;49.22;26.75;;;;;;;8.92;100.00;100434.00;2611654;36;20030;-69
2021/10/31 07:30:12;;;;;;;52.17;27.63;;;;;;;8.95;100.00;100425.66;2611804;36;20035;-69
2021/10/31 07:32:40;;;;;;;49.60;26.85;;;;;;;9.01;100.00;100426.97;2612004;36;20030;-69
2021/10/31 07:35:10;;;;;;;51.50;27.25;;;;;;;9.07;100.00;100426.44;2611624;36;20048;-71
2021/10/31 07:37:38;;;;;;;48.78;25.85;;;;;;;9.09;100.00;100409.19;2611915;36;20674;-68
2021/10/31 07:40:10;;;;;;;45.78;26.50;;;;;;;9.11;100.00;100403.66;2611441;36;20179;-69
2021/10/31 07:42:38;;;;;;;40.92;24.60;;;;;;;9.16;100.00;100393.38;2612347;36;20149;-70
2021/10/31 07:45:08;;;;;;;47.42;25.85;;;;;;;9.24;100.00;100392.69;2611762;36;20038;-71
2021/10/31 07:47:36;;;;;;;;;;;;;;;9.32;100.00;100392.84;2612043;36;20122;-69
2021/10/31 07:50:05;;;;;;;46.38;25.25;;;;;;;9.31;100.00;100391.13;2611724;31;20004;-69
2021/10/31 07:52:34;;;;;;;46.83;25.50;;;;;;;9.37;100.00;100409.38;2612031;36;20118;-69
2021/10/31 07:55:05;;;;;;;45.83;25.23;;;;;;;9.45;100.00;100414.03;2611947;36;20035;-69
2021/10/31 07:57:35;;;;;;;40.10;22.65;;;;;;;9.52;100.00;100408.97;2612805;36;20038;-69
2021/10/31 08:00:04;;;;;;;45.28;25.38;;;;;;;9.54;100.00;100402.47;2612847;31;20392;-69
2021/10/31 08:02:32;;;;;;;45.55;24.38;;;;;;;9.58;100.00;100397.66;2612192;36;20125;-69
2021/10/31 08:05:00;;;;;;;37.90;22.90;;;;;;;9.57;100.00;100404.00;2612150;36;20535;-71
2021/10/31 08:07:30;;;;;;;37.95;22.30;;;;;;;9.61;100.00;100405.44;2612437;36;20035;-69
2021/10/31 08:09:59;;;;;;;39.20;22.83;;;;;;;9.63;100.00;100406.16;2612301;36;20049;-71
2021/10/31 08:12:28;;;;;;;40.42;24.35;;;;;;;9.69;100.00;100400.22;2612716;36;20514;-69
2021/10/31 08:14:59;;;;;;;40.58;25.33;;;;;;;9.74;100.00;100403.31;2612634;36;20037;-70
2021/10/31 08:17:30;;;;;;;41.78;23.38;;;;;;;9.74;100.00;100405.16;2612495;36;20562;-71
2021/10/31 08:19:59;;;;;;;44.20;23.40;;;;;;;9.85;100.00;100406.84;2612130;36;20037;-69
2021/10/31 08:22:27;;;;;;;35.90;21.83;;;;;;;9.89;100.00;100402.88;2612052;36;20173;-70
2021/10/31 08:24:55;;;;;;;40.13;22.87;;;;;;;9.93;100.00;100402.44;2612547;36;20380;-71
2021/10/31 08:27:24;;;;;;;38.70;22.65;;;;;;;10.03;100.00;100399.75;2612263;36;20355;-69
2021/10/31 08:29:53;;;;;;;39.25;22.85;;;;;;;10.04;100.00;100398.78;2612469;36;20038;-69
2021/10/31 08:32:26;;;;;;;36.03;21.92;;;;;;;10.07;100.00;100398.47;2611325;36;20177;-69
2021/10/31 08:34:55;;;;;;;33.92;22.42;;;;;;;10.11;100.00;100386.41;2612382;36;20073;-69
2021/10/31 08:37:23;;;;;;;35.43;21.33;;;;;;;10.18;100.00;100384.84;2611986;31;20038;-69
2021/10/31 08:39:52;;;;;;;35.20;22.17;;;;;;;10.21;100.00;100374.81;2612636;36;20546;-70
2021/10/31 08:42:20;;;;;;;30.98;19.60;;;;;;;10.21;100.00;100372.13;2611562;36;20177;-69
2021/10/31 08:44:49;;;;;;;30.95;19.15;;;;;;;10.30;100.00;100355.09;2612979;31;20065;-69
2021/10/31 08:47:17;;;;;;;31.00;19.85;;;;;;;10.36;100.00;100353.69;2611992;36;20034;-71
2021/10/31 08:49:49;;;;;;;32.70;19.63;;;;;;;10.37;100.00;100340.09;2611716;36;20038;-70
2021/10/31 08:52:17;;;;;;;26.13;17.58;;;;;;;10.45;100.00;100332.16;2611827;31;20030;-69
2021/10/31 08:54:45;;;;;;;28.63;18.33;;;;;;;10.52;100.00;100310.88;2612443;36;20511;-71
2021/10/31 08:57:13;;;;;;;27.13;16.50;;;;;;;10.53;100.00;100312.56;2612037;31;20042;-70
2021/10/31 08:59:42;;;;;;;22.65;16.65;;;;;;;10.63;100.00;100313.38;2613063;31;20503;-68
2021/10/31 09:02:10;;;;;;;24.25;16.30;;;;;;;10.80;100.00;100311.69;2611365;31;20065;-69
2021/10/31 09:04:39;;;;;;;23.20;16.87;;;;;;;10.76;100.00;100310.31;2611865;36;20082;-70
2021/10/31 09:07:14;;;;;;;23.20;14.80;;;;;;;10.74;100.00;100308.78;2611686;36;20053;-69
2021/10/31 09:09:43;;;;;;;20.80;14.45;;;;;;;10.82;100.00;100307.03;2612423;36;20057;-70
2021/10/31 09:12:12;;;;;;;18.85;14.35;;;;;;;10.89;100.00;100303.72;2611336;36;20078;-70
2021/10/31 09:14:42;;;;;;;19.77;14.55;;;;;;;10.99;100.00;100301.81;2612400;36;20206;-69
2021/10/31 09:17:11;;;;;;;15.35;12.93;;;;;;;10.98;100.00;100292.03;2574899;36;20031;-69
2021/10/31 09:19:39;;;;;;;20.20;13.30;;;;;;;11.04;100.00;100280.63;2611482;36;20038;-69
2021/10/31 09:22:12;;;;;;;18.20;12.98;;;;;;;11.21;100.00;100273.56;2610491;36;20038;-69
2021/10/31 09:24:40;;;;;;;19.17;13.25;;;;;;;11.20;100.00;100280.81;2611301;36;20126;-68
2021/10/31 09:27:08;;;;;;;17.02;13.80;;;;;;;11.19;100.00;100292.59;2611918;36;20034;-68
2021/10/31 09:29:37;;;;;;;15.68;12.50;;;;;;;11.29;100.00;100286.25;2612147;36;20069;-69
2021/10/31 09:32:06;;;;;;;15.48;11.70;;;;;;;11.35;100.00;100291.88;2611770;36;20030;-69
2021/10/31 09:34:34;;;;;;;18.08;12.10;;;;;;;11.41;100.00;100279.66;2611338;36;20034;-69
2021/10/31 09:37:03;;;;;;;15.02;11.25;;;;;;;11.48;100.00;100275.28;2611372;36;20074;-69
2021/10/31 09:39:34;;;;;;;13.90;11.68;;;;;;;11.48;100.00;100280.69;2611011;31;20145;-69
2021/10/31 09:42:03;;;;;;;16.23;11.00;;;;;;;11.62;100.00;100252.34;2610498;36;20430;-69
2021/10/31 09:44:34;;;;;;;14.57;10.90;;;;;;;11.71;100.00;100258.63;2611011;36;20034;-68
2021/10/31 09:47:03;;;;;;;13.85;10.15;;;;;;;11.71;100.00;100251.38;2611079;36;20531;-69
2021/10/31 09:49:31;;;;;;;13.03;10.53;;;;;;;11.77;100.00;100255.28;2611396;36;20030;-69
2021/10/31 09:51:59;;;;;;;11.60;9.32;;;;;;;11.79;100.00;100255.97;2611200;36;20149;-69
2021/10/31 09:54:28;;;;;;;14.10;9.83;;;;;;;11.98;100.00;100240.63;2611324;36;20034;-69
2021/10/31 09:57:01;;;;;;;11.98;9.32;;;;;;;11.95;100.00;100231.00;2612013;36;20108;-70
2021/10/31 09:59:29;;;;;;;16.98;9.35;;;;;;;11.99;100.00;100224.28;2611756;36;20081;-67
2021/10/31 10:02:12;;;;;;;12.35;9.68;;;;;;;12.01;100.00;100211.47;2612049;36;20046;-71
2021/10/31 10:04:43;;;;;;;10.75;8.75;;;;;;;12.08;100.00;100223.28;2619989;36;20471;-70
2021/10/31 10:07:12;;;;;;;10.93;8.13;;;;;;;12.19;100.00;100214.09;2610509;36;20055;-71
2021/10/31 10:09:54;;;;;;;10.98;8.07;;;;;;;12.33;100.00;100204.50;2611455;36;20034;-70
2021/10/31 10:12:26;;;;;;;9.15;7.15;;;;;;;12.35;100.00;100190.84;2612309;31;20034;-71
2021/10/31 10:15:04;;;;;;;9.38;7.47;;;;;;;12.35;100.00;100193.56;2611891;36;20122;-68
2021/10/31 10:17:46;;;;;;;11.32;7.65;;;;;;;12.43;100.00;100185.50;2611479;36;20034;-70
2021/10/31 10:20:15;;;;;;;9.10;7.32;;;;;;;12.36;100.00;100185.28;2611837;31;20575;-70
2021/10/31 10:22:44;;;;;;;9.73;7.50;;;;;;;12.40;100.00;100173.16;2611703;36;20175;-70
2021/10/31 10:25:13;;;;;;;10.45;7.45;;;;;;;12.48;100.00;100175.03;2611427;36;20621;-70
2021/10/31 10:27:55;;;;;;;8.30;7.10;;;;;;;12.56;100.00;100171.53;2611969;31;20457;-70
2021/10/31 10:30:26;;;;;;;8.88;6.97;;;;;;;12.56;100.00;100160.72;2611188;36;20039;-69
2021/10/31 10:32:57;;;;;;;6.97;6.10;;;;;;;12.66;100.00;100155.16;2610468;36;20034;-70
2021/10/31 10:35:27;;;;;;;7.53;6.18;;;;;;;12.72;100.00;100143.69;2585989;36;20062;-70
2021/10/31 10:37:57;;;;;;;7.85;6.57;;;;;;;12.72;100.00;100143.69;2611468;31;20116;-68
2021/10/31 10:40:28;;;;;;;8.65;6.10;;;;;;;12.90;100.00;100128.16;2611349;36;20034;-69
2021/10/31 10:43:01;;;;;;;9.88;6.25;;;;;;;12.83;100.00;100137.97;2611284;36;20065;-68
2021/10/31 10:45:31;;;;;;;6.93;6.20;;;;;;;12.95;100.00;100123.09;2611040;36;20448;-67
2021/10/31 10:48:02;;;;;;;7.03;5.55;;;;;;;13.18;100.00;100122.41;2611422;36;20423;-69
2021/10/31 10:50:35;;;;;;;9.07;5.43;;;;;;;13.32;100.00;100116.31;2611270;36;20035;-69
2021/10/31 10:53:03;;;;;;;6.53;5.82;;;;;;;13.25;100.00;100119.84;2611140;36;20406;-68
2021/10/31 10:55:36;;;;;;;8.18;4.85;;;;;;;13.22;100.00;100102.13;2610912;36;20561;-68
2021/10/31 10:58:15;;;;;;;6.38;5.00;;;;;;;13.20;100.00;100098.75;2611205;36;20118;-69
2021/10/31 11:00:46;;;;;;;8.93;5.50;;;;;;;13.33;100.00;100101.75;2611547;36;20042;-69
2021/10/31 11:03:18;;;;;;;8.52;4.72;;;;;;;13.23;100.00;100092.16;2611216;36;20053;-69
2021/10/31 11:05:49;;;;;;;6.65;4.78;;;;;;;13.33;100.00;100093.66;2611751;36;20460;-68
2021/10/31 11:08:19;;;;;;;7.97;4.97;;;;;;;13.24;100.00;100083.88;2611898;31;20062;-68
2021/10/31 11:10:50;;;;;;;6.95;4.50;;;;;;;13.20;100.00;100071.72;2611732;36;20085;-68
2021/10/31 11:13:21;;;;;;;6.88;5.00;;;;;;;13.23;100.00;100081.34;2611232;36;20062;-68
2021/10/31 11:15:49;;;;;;;8.90;4.57;;;;;;;13.19;100.00;100063.78;2611391;36;20145;-69
2021/10/31 11:18:18;;;;;;;7.37;4.77;;;;;;;13.22;100.00;100061.59;2610694;36;20447;-69
2021/10/31 11:20:48;;;;;;;4.97;4.27;;;;;;;13.33;100.00;100057.69;2611027;36;20623;-68
2021/10/31 11:23:20;;;;;;;5.55;4.32;;;;;;;13.18;100.00;100046.75;2610770;36;20190;-71
2021/10/31 11:25:49;;;;;;;6.50;4.03;;;;;;;13.07;100.00;100044.41;2611468;36;20057;-69
2021/10/31 11:28:23;;;;;;;5.63;4.72;;;;;;;13.03;100.00;100035.81;2609990;36;20034;-69
2021/10/31 11:30:52;;;;;;;6.97;4.60;;;;;;;13.08;100.00;100032.59;2611602;36;20034;-69
2021/10/31 11:33:21;;;;;;;7.35;4.85;;;;;;;13.08;100.00;100027.19;2611343;36;20077;-69
2021/10/31 11:35:49;;;;;;;7.57;4.45;;;;;;;13.04;100.00;100017.75;2611877;36;20168;-69
2021/10/31 11:38:23;;;;;;;5.53;3.95;;;;;;;13.11;100.00;100007.94;2611362;36;20053;-70
2021/10/31 11:40:55;;;;;;;5.72;4.00;;;;;;;13.04;100.00;100002.38;2611991;36;20142;-69
2021/10/31 11:43:30;;;;;;;7.38;3.97;;;;;;;13.14;100.00;99996.78;2612238;36;20538;-69
2021/10/31 11:45:58;;;;;;;8.60;3.80;;;;;;;13.18;100.00;99990.00;2613292;36;20041;-70
2021/10/31 11:48:28;;;;;;;5.78;3.95;;;;;;;13.06;100.00;99978.75;2613146;31;21114;-69
2021/10/31 11:51:10;;;;;;;5.65;3.92;;;;;;;12.98;100.00;99967.94;2611067;31;20138;-68
2021/10/31 11:53:41;;;;;;;6.28;3.60;;;;;;;13.04;100.00;99967.25;2610348;36;20157;-70
2021/10/31 11:56:19;;;;;;;4.15;3.50;;;;;;;12.97;100.00;99955.47;2610554;36;20134;-69
2021/10/31 11:58:57;;;;;;;6.85;3.53;;;;;;;12.93;100.00;99954.97;2610671;36;20027;-69
2021/10/31 12:01:47;;;;;;;3.90;3.20;;;;;;;12.95;100.00;99955.63;2611767;36;20053;-68
2021/10/31 12:05:08;;;;;;;4.35;3.10;;;;;;;12.87;100.00;99954.84;2611421;36;20035;-68
2021/10/31 12:07:43;;;;;;;4.07;2.92;;;;;;;13.03;100.00;99935.00;2611389;36;20073;-69
2021/10/31 12:10:30;;;;;;;6.25;2.97;;;;;;;12.94;100.00;99924.25;2611015;36;20137;-70
2021/10/31 12:13:11;;;;;;;4.53;2.72;;;;;;;12.99;100.00;99917.50;2611769;36;20038;-69
2021/10/31 12:15:57;;;;;;;4.82;3.13;;;;;;;13.01;100.00;99932.47;2612447;31;20034;-69
2021/10/31 12:18:43;;;;;;;4.13;2.78;;;;;;;13.06;100.00;99930.09;2610635;31;20038;-70
2021/10/31 12:21:20;;;;;;;5.55;3.00;;;;;;;13.00;100.00;99917.31;2611335;36;20038;-69
2021/10/31 12:23:55;;;;;;;6.10;2.78;;;;;;;13.06;100.00;99910.34;2611267;36;20034;-70
2021/10/31 12:26:25;;;;;;;4.20;2.45;;;;;;;13.05;100.00;99917.59;2611405;36;20073;-68
2021/10/31 12:29:09;;;;;;;5.03;2.63;;;;;;;13.06;100.00;99904.94;2610656;36;20035;-70
2021/10/31 12:31:41;;;;;;;5.25;2.40;;;;;;;12.95;100.00;99896.19;2611099;36;20447;-70
2021/10/31 12:34:19;;;;;;;5.05;2.67;;;;;;;13.04;100.00;99886.19;2611138;36;20522;-69
2021/10/31 12:36:49;;;;;;;5.53;2.70;;;;;;;13.18;100.00;99873.81;2611583;36;20544;-69
2021/10/31 12:39:48;;;;;;;6.05;2.88;;;;;;;13.17;100.00;99866.72;2611754;36;20058;-69
2021/10/31 12:42:17;;;;;;;3.65;2.63;;;;;;;13.13;100.00;99863.56;2611625;36;20608;-70
2021/10/31 12:44:48;;;;;;;3.83;2.28;;;;;;;13.26;100.00;99849.44;2611795;36;20138;-70
2021/10/31 12:47:23;;;;;;;4.60;2.42;;;;;;;13.27;100.00;99866.50;2611159;36;20038;-70
2021/10/31 12:49:53;;;;;;;3.30;2.10;;;;;;;13.46;100.00;99871.47;2611379;36;20372;-70
2021/10/31 12:52:27;;;;;;;5.25;2.22;;;;;;;13.59;100.00;99860.06;2610904;31;20057;-70